Terminal Aerodrome Forecast
Issued by NWS La Crosse, WI

Home | Current Version | Previous Version | Text Only | Print | Product List | Glossary On
Versions: 1 2 3 4 5 6 7 8 9 10 11 12 13 14 15 16 17 18 19 20 21 22 23 24 25 26 27 28 29 30 31 32 33 34 35 36
000
FTUS43 KARX 280220 AAA
TAFLSE
TAF AMD
KLSE 280220Z 2802/2824 35007KT P6SM -SHRA FEW030 OVC050
      TEMPO 2802/2806 -SHRA BKN028 OVC040
     FM280600 33006KT P6SM SCT030 OVC050
     FM280900 34011KT P6SM OVC025
     FM281700 35011G18KT P6SM BKN030
     FM282100 36012KT P6SM BKN040=

USA.gov is the U.S. government's official web portal to all federal, state and local government web resources and services.